createdAt,value
2018-12-27T00:01:51.505Z,50.41
2018-12-27T00:04:25.940Z,50.38
2018-12-27T00:06:59.712Z,50.29
2018-12-27T00:09:33.737Z,50.05
2018-12-27T00:12:08.292Z,49.90
2018-12-27T00:14:42.369Z,49.85
2018-12-27T00:17:16.212Z,49.74
2018-12-27T00:19:50.015Z,49.63
2018-12-27T00:22:24.108Z,49.43
2018-12-27T00:24:58.592Z,49.37
2018-12-27T00:27:32.748Z,49.27
2018-12-27T00:30:07.312Z,48.99
2018-12-27T00:32:41.086Z,48.83
2018-12-27T00:35:15.577Z,48.71
2018-12-27T00:40:29.891Z,48.78
2018-12-27T00:43:03.675Z,48.52
2018-12-27T00:45:38.176Z,48.39
2018-12-27T00:48:11.925Z,48.22
2018-12-27T00:50:45.741Z,48.30
2018-12-27T00:53:19.542Z,48.46
2018-12-27T00:55:53.280Z,48.80
2018-12-27T00:58:26.976Z,48.80
2018-12-27T01:03:42.299Z,48.83
2018-12-27T01:08:57.540Z,48.61
2018-12-27T01:11:31.362Z,48.44
2018-12-27T01:14:05.182Z,48.23
2018-12-27T01:19:20.614Z,47.98
2018-12-27T01:21:55.157Z,47.98
2018-12-27T01:27:10.342Z,47.74
2018-12-27T01:29:44.841Z,47.73
2018-12-27T01:32:18.653Z,47.77
2018-12-27T01:34:52.605Z,47.76
2018-12-27T01:37:26.688Z,47.72
2018-12-27T01:40:00.744Z,47.77
2018-12-27T01:42:34.482Z,47.97
2018-12-27T01:45:08.234Z,48.07
2018-12-27T01:47:42.072Z,48.07
2018-12-27T01:50:15.886Z,48.13
2018-12-27T01:55:36.798Z,48.07
2018-12-27T01:58:10.586Z,48.01
2018-12-27T02:00:44.329Z,48.09
2018-12-27T02:03:18.078Z,48.08
2018-12-27T02:05:51.885Z,48.13
2018-12-27T02:08:25.703Z,48.18
2018-12-27T02:10:59.476Z,48.24
2018-12-27T02:13:33.968Z,48.11
2018-12-27T02:16:07.824Z,48.17
2018-12-27T02:18:41.673Z,48.12
2018-12-27T02:21:15.432Z,48.18
2018-12-27T02:23:49.178Z,48.16
2018-12-27T02:26:22.970Z,48.06
2018-12-27T02:28:56.741Z,48.02
2018-12-27T02:31:31.385Z,48.08
2018-12-27T02:34:05.465Z,47.98
2018-12-27T02:36:39.985Z,47.96
2018-12-27T02:39:14.467Z,48.12
2018-12-27T02:41:48.253Z,48.00
2018-12-27T02:44:21.987Z,47.87
2018-12-27T02:46:56.085Z,47.89
2018-12-27T02:49:29.868Z,48.06
2018-12-27T02:52:03.680Z,48.08
2018-12-27T02:54:37.484Z,48.03
2018-12-27T02:57:11.647Z,48.00
2018-12-27T02:59:45.449Z,47.94
2018-12-27T03:02:19.216Z,47.97
2018-12-27T03:04:53.059Z,47.69
2018-12-27T03:07:26.837Z,47.72
2018-12-27T03:10:00.810Z,47.89
2018-12-27T03:12:35.566Z,48.05
2018-12-27T03:15:09.302Z,48.05
2018-12-27T03:17:43.067Z,47.93
2018-12-27T03:20:17.160Z,48.12
2018-12-27T03:22:50.912Z,48.11
2018-12-27T03:25:24.769Z,48.03
2018-12-27T03:27:58.522Z,47.98
2018-12-27T03:30:32.318Z,47.84
2018-12-27T03:33:06.123Z,47.80
2018-12-27T03:38:26.168Z,47.38
2018-12-27T03:40:59.952Z,47.20
2018-12-27T03:43:33.697Z,47.11
2018-12-27T03:46:07.461Z,46.87
2018-12-27T03:48:41.234Z,46.80
2018-12-27T03:51:15.394Z,46.72
2018-12-27T03:53:49.156Z,46.67
2018-12-27T03:56:22.900Z,46.48
2018-12-27T03:58:56.730Z,46.30
2018-12-27T04:01:30.580Z,46.06
2018-12-27T04:04:04.356Z,45.78
2018-12-27T04:06:38.110Z,45.66
2018-12-27T04:09:11.907Z,45.51
2018-12-27T04:11:45.638Z,45.45
2018-12-27T04:14:19.421Z,45.46
2018-12-27T04:16:53.181Z,45.64
2018-12-27T04:19:27.232Z,45.85
2018-12-27T04:22:00.961Z,45.82
2018-12-27T04:27:14.272Z,45.52
2018-12-27T04:29:48.709Z,45.55
2018-12-27T04:32:22.537Z,45.54
2018-12-27T04:34:56.312Z,45.51
2018-12-27T04:37:30.058Z,45.38
2018-12-27T04:40:03.824Z,45.30
2018-12-27T04:42:37.637Z,45.45
2018-12-27T04:45:11.435Z,45.50
2018-12-27T04:47:45.205Z,45.48
2018-12-27T04:50:18.963Z,45.49
2018-12-27T04:52:52.803Z,45.55
2018-12-27T04:55:26.626Z,45.69
2018-12-27T04:58:00.434Z,45.75
2018-12-27T05:00:34.282Z,45.97
2018-12-27T05:03:08.335Z,46.09
2018-12-27T05:05:42.131Z,45.70
2018-12-27T05:08:16.314Z,45.66
2018-12-27T05:10:50.020Z,45.80
2018-12-27T05:13:23.819Z,45.89
2018-12-27T05:15:57.570Z,45.99
2018-12-27T05:18:31.370Z,45.89
2018-12-27T05:21:05.162Z,45.79
2018-12-27T05:23:39.726Z,45.66
2018-12-27T05:26:13.501Z,45.67
2018-12-27T05:28:47.625Z,45.58
2018-12-27T05:31:21.369Z,45.62
2018-12-27T05:33:55.874Z,45.56
2018-12-27T05:36:29.690Z,45.44
2018-12-27T05:39:04.534Z,45.50
2018-12-27T05:41:38.375Z,45.38
2018-12-27T05:44:12.125Z,45.38
2018-12-27T05:46:45.925Z,45.24
2018-12-27T05:49:19.685Z,45.28
2018-12-27T05:51:53.466Z,45.12
2018-12-27T05:54:27.213Z,45.03
2018-12-27T05:57:01.019Z,44.97
2018-12-27T05:59:34.796Z,44.83
2018-12-27T06:02:08.638Z,44.73
2018-12-27T06:10:04.225Z,44.56
2018-12-27T06:12:38.657Z,44.62
2018-12-27T06:17:58.352Z,44.34
2018-12-27T06:20:32.048Z,44.31
2018-12-27T06:23:06.628Z,44.29
2018-12-27T06:28:22.634Z,44.32
2018-12-27T06:30:56.364Z,44.31
2018-12-27T06:33:30.812Z,44.38
2018-12-27T06:36:05.347Z,44.27
2018-12-27T06:38:39.127Z,44.14
2018-12-27T06:41:13.687Z,44.11
2018-12-27T06:43:47.464Z,44.08
2018-12-27T06:46:22.357Z,43.93
2018-12-27T06:48:56.123Z,43.86
2018-12-27T06:51:29.881Z,43.81
2018-12-27T06:54:03.696Z,43.86
2018-12-27T06:56:37.492Z,43.90
2018-12-27T07:01:52.731Z,43.52
2018-12-27T07:04:26.731Z,43.22
2018-12-27T07:07:01.286Z,42.86
2018-12-27T07:09:35.083Z,42.59
2018-12-27T07:12:08.834Z,42.32
2018-12-27T07:14:42.572Z,42.08
2018-12-27T07:17:16.352Z,41.99
2018-12-27T07:19:50.377Z,42.17
2018-12-27T07:22:24.182Z,42.12
2018-12-27T07:24:57.937Z,42.11
2018-12-27T07:27:31.713Z,42.10
2018-12-27T07:32:46.881Z,42.09
2018-12-27T07:38:02.549Z,42.33
2018-12-27T07:40:36.245Z,42.38
2018-12-27T07:43:10.031Z,42.48
2018-12-27T07:45:43.811Z,42.64
2018-12-27T07:48:18.594Z,42.83
2018-12-27T07:50:52.391Z,42.94
2018-12-27T07:53:26.227Z,43.06
2018-12-27T07:55:59.991Z,43.20
2018-12-27T08:01:14.049Z,43.13
2018-12-27T08:03:47.803Z,43.13
2018-12-27T08:06:21.626Z,43.15
2018-12-27T08:08:56.148Z,43.30
2018-12-27T08:11:31.067Z,43.44
2018-12-27T08:14:04.795Z,43.67
2018-12-27T08:16:39.633Z,43.74
2018-12-27T08:19:13.404Z,43.90
2018-12-27T08:21:47.479Z,44.04
2018-12-27T08:24:21.231Z,44.03
2018-12-27T08:26:55.013Z,43.80
2018-12-27T08:29:28.764Z,43.69
2018-12-27T08:32:03.622Z,43.56
2018-12-27T08:34:37.529Z,43.53
2018-12-27T08:37:11.274Z,43.37
2018-12-27T08:39:45.035Z,43.15
2018-12-27T08:42:18.876Z,42.75
2018-12-27T08:44:52.714Z,42.26
2018-12-27T08:47:26.465Z,41.77
2018-12-27T08:50:00.226Z,41.41
2018-12-27T08:52:35.040Z,40.87
2018-12-27T08:55:09.161Z,40.49
2018-12-27T08:57:42.898Z,40.06
2018-12-27T09:00:17.037Z,39.73
2018-12-27T09:02:50.822Z,39.36
2018-12-27T09:05:24.653Z,39.09
2018-12-27T09:07:58.424Z,38.67
2018-12-27T09:10:32.637Z,38.27
2018-12-27T09:13:06.364Z,37.95
2018-12-27T09:15:40.505Z,37.76
2018-12-27T09:18:14.265Z,37.84
2018-12-27T09:20:48.070Z,38.52
2018-12-27T09:23:21.852Z,39.06
2018-12-27T09:25:55.629Z,39.44
2018-12-27T09:28:29.358Z,39.67
2018-12-27T09:33:43.215Z,39.73
2018-12-27T09:39:00.019Z,39.06
2018-12-27T09:41:34.065Z,38.78
2018-12-27T09:46:49.629Z,38.75
2018-12-27T09:49:23.334Z,38.54
2018-12-27T09:52:02.102Z,38.26
2018-12-27T09:54:30.913Z,37.99
2018-12-27T09:57:04.633Z,37.64
2018-12-27T09:59:38.399Z,37.31
2018-12-27T10:02:13.630Z,37.21
2018-12-27T10:04:48.481Z,37.12
2018-12-27T10:07:22.253Z,36.69
2018-12-27T10:09:56.074Z,36.78
2018-12-27T10:20:33.745Z,35.23
2018-12-27T10:23:08.190Z,34.62
2018-12-27T10:25:42.312Z,34.21
2018-12-27T10:28:16.108Z,33.84
2018-12-27T10:30:50.157Z,33.44
2018-12-27T10:33:23.895Z,33.08
2018-12-27T10:35:58.408Z,32.67
2018-12-27T10:38:32.923Z,32.18
2018-12-27T10:41:06.732Z,31.96
2018-12-27T10:43:41.345Z,31.85
2018-12-27T10:46:15.484Z,31.55
2018-12-27T10:48:50.307Z,31.18
2018-12-27T10:51:24.127Z,30.98
2018-12-27T10:53:58.138Z,30.80
2018-12-27T10:56:31.814Z,30.87
2018-12-27T10:59:05.579Z,30.59
2018-12-27T11:01:39.341Z,30.48
2018-12-27T11:04:13.822Z,30.38
2018-12-27T11:06:47.932Z,30.45
2018-12-27T11:09:21.733Z,30.31
2018-12-27T11:11:55.589Z,30.28
2018-12-27T11:14:30.464Z,30.23
2018-12-27T11:17:04.208Z,30.28
2018-12-27T11:19:37.973Z,30.35
2018-12-27T11:22:11.784Z,30.27
2018-12-27T11:24:45.561Z,30.16
2018-12-27T11:27:20.080Z,30.26
2018-12-27T11:29:54.605Z,30.32
2018-12-27T11:32:28.356Z,30.31
2018-12-27T11:35:02.395Z,30.49
2018-12-27T11:37:36.176Z,30.49
2018-12-27T11:40:10.008Z,30.64
2018-12-27T11:42:43.806Z,30.85
2018-12-27T11:45:17.593Z,30.82
2018-12-27T11:50:31.164Z,30.89
2018-12-27T11:53:05.061Z,31.08
2018-12-27T11:55:38.977Z,31.33
2018-12-27T11:58:12.756Z,31.37
2018-12-27T12:00:46.496Z,31.44
2018-12-27T12:03:20.996Z,31.56
2018-12-27T12:05:54.760Z,31.62
2018-12-27T12:08:28.557Z,31.84
2018-12-27T12:11:03.107Z,32.13
2018-12-27T12:24:20.705Z,32.03
2018-12-27T12:26:54.706Z,32.07
2018-12-27T12:29:28.525Z,32.17
2018-12-27T12:34:42.585Z,32.61
2018-12-27T12:37:16.296Z,32.68
2018-12-27T12:39:50.145Z,32.85
2018-12-27T12:42:32.935Z,33.22
2018-12-27T12:44:58.494Z,33.44
2018-12-27T12:47:32.991Z,33.59
2018-12-27T12:50:08.734Z,33.83
2018-12-27T12:52:42.812Z,33.94
2018-12-27T12:55:16.576Z,34.25
2018-12-27T12:57:51.117Z,34.33
2018-12-27T13:00:25.641Z,34.40
2018-12-27T13:02:59.423Z,34.78
2018-12-27T13:05:33.429Z,35.25
2018-12-27T13:10:46.854Z,35.56
2018-12-27T13:18:47.117Z,36.38
2018-12-27T13:21:14.725Z,36.50
2018-12-27T13:23:49.304Z,37.12
2018-12-27T13:29:02.600Z,37.58
2018-12-27T13:31:37.074Z,37.60
2018-12-27T13:36:51.407Z,38.17
2018-12-27T13:39:25.124Z,38.40
2018-12-27T13:41:59.290Z,38.18
2018-12-27T13:49:58.584Z,38.44
2018-12-27T13:52:32.462Z,38.36
2018-12-27T13:57:48.798Z,38.48
2018-12-27T14:00:22.497Z,38.61
2018-12-27T14:02:56.349Z,38.77
2018-12-27T14:08:09.959Z,38.79
2018-12-27T14:10:43.694Z,39.22
2018-12-27T14:13:17.549Z,39.37
2018-12-27T14:18:36.792Z,39.61
2018-12-27T14:21:10.524Z,39.76
2018-12-27T14:23:44.441Z,40.32
2018-12-27T14:26:18.244Z,40.70
2018-12-27T14:28:52.690Z,41.07
2018-12-27T14:31:26.443Z,41.42
2018-12-27T14:36:41.929Z,41.54
2018-12-27T14:39:15.669Z,41.64
2018-12-27T14:41:49.492Z,42.03
2018-12-27T14:44:24.000Z,42.09
2018-12-27T14:49:42.108Z,42.10
2018-12-27T14:52:15.850Z,42.12
2018-12-27T14:54:50.434Z,42.25
2018-12-27T14:57:24.207Z,42.50
2018-12-27T14:59:58.774Z,42.91
2018-12-27T15:05:12.241Z,43.21
2018-12-27T15:10:31.961Z,43.14
2018-12-27T15:13:05.990Z,43.52
2018-12-27T15:15:39.794Z,43.74
2018-12-27T15:18:14.368Z,44.04
2018-12-27T15:20:48.228Z,44.14
2018-12-27T15:23:21.982Z,44.24
2018-12-27T15:25:56.581Z,44.45
2018-12-27T15:28:30.701Z,44.70
2018-12-27T15:31:04.521Z,44.86
2018-12-27T15:33:38.650Z,44.85
2018-12-27T15:36:12.487Z,44.68
2018-12-27T15:38:46.281Z,44.56
2018-12-27T15:41:20.913Z,44.62
2018-12-27T15:43:54.786Z,44.64
2018-12-27T15:46:28.566Z,44.71
2018-12-27T15:49:02.355Z,44.72
2018-12-27T15:51:36.937Z,44.80
2018-12-27T15:54:10.689Z,45.08
2018-12-27T15:56:44.549Z,45.29
2018-12-27T15:59:18.330Z,45.36
2018-12-27T16:01:52.410Z,45.68
2018-12-27T16:04:26.910Z,45.90
2018-12-27T16:09:42.547Z,45.88
2018-12-27T16:12:17.004Z,45.83
2018-12-27T16:14:51.269Z,45.94
2018-12-27T16:17:26.305Z,46.01
2018-12-27T16:20:01.540Z,46.10
2018-12-27T16:27:58.920Z,46.66
2018-12-27T16:30:32.672Z,46.99
2018-12-27T16:33:06.861Z,47.15
2018-12-27T16:35:40.627Z,47.22
2018-12-27T16:38:14.665Z,47.26
2018-12-27T16:40:49.178Z,47.28
2018-12-27T16:43:22.949Z,47.55
2018-12-27T16:45:56.752Z,47.64
2018-12-27T16:48:30.818Z,47.67
2018-12-27T16:51:05.344Z,47.76
2018-12-27T16:53:40.201Z,47.97
2018-12-27T16:58:56.091Z,48.32
2018-12-27T17:01:29.873Z,48.55
2018-12-27T17:04:03.709Z,48.65
2018-12-27T17:09:20.433Z,48.69
2018-12-27T17:11:55.558Z,48.70
2018-12-27T17:17:20.034Z,49.41
2018-12-27T17:19:53.757Z,49.45
2018-12-27T17:22:27.578Z,49.49
2018-12-27T17:27:42.282Z,49.55
2018-12-27T17:30:16.044Z,49.57
2018-12-27T17:32:49.957Z,49.67
2018-12-27T17:35:23.823Z,49.70
2018-12-27T17:37:57.578Z,49.80
2018-12-27T17:43:17.945Z,50.00
2018-12-27T17:48:33.517Z,50.08
2018-12-27T17:51:07.279Z,50.30
2018-12-27T17:53:41.149Z,50.36
2018-12-27T17:58:56.482Z,50.69
2018-12-27T18:01:30.206Z,50.84
2018-12-27T18:06:45.659Z,50.82
2018-12-27T18:12:03.626Z,51.23
2018-12-27T18:19:58.536Z,51.21
2018-12-27T18:22:32.250Z,51.21
2018-12-27T18:27:45.962Z,51.44
2018-12-27T18:30:19.742Z,51.61
2018-12-27T18:32:53.896Z,51.84
2018-12-27T18:38:09.875Z,52.01
2018-12-27T18:40:44.304Z,52.11
2018-12-27T18:43:18.108Z,52.06
2018-12-27T18:48:34.721Z,51.80
2018-12-27T18:51:08.434Z,51.75
2018-12-27T18:53:42.476Z,51.90
2018-12-27T18:58:59.357Z,51.87
2018-12-27T19:01:33.057Z,51.96
2018-12-27T19:06:48.289Z,52.00
2018-12-27T19:09:22.014Z,52.14
2018-12-27T19:12:51.565Z,52.45
2018-12-27T19:18:26.776Z,52.80
2018-12-27T19:21:21.006Z,52.67
2018-12-27T19:23:55.126Z,52.78
2018-12-27T19:29:12.229Z,52.79
2018-12-27T19:31:46.077Z,52.89
2018-12-27T19:34:19.976Z,52.96
2018-12-27T19:39:33.260Z,52.98
2018-12-27T19:42:07.766Z,53.11
2018-12-27T19:47:23.077Z,53.12
2018-12-27T19:49:57.542Z,53.22
2018-12-27T19:52:31.716Z,53.39
2018-12-27T19:57:52.437Z,53.49
2018-12-27T20:00:26.885Z,53.65
2018-12-27T20:03:00.726Z,53.75
2018-12-27T20:08:14.631Z,53.60
2018-12-27T20:10:48.413Z,53.59
2018-12-27T20:13:23.014Z,53.65
2018-12-27T20:18:42.746Z,53.68
2018-12-27T20:21:20.538Z,53.62
2018-12-27T20:23:54.600Z,53.65
2018-12-27T20:26:28.431Z,53.87
2018-12-27T20:29:02.219Z,53.89
2018-12-27T20:37:02.656Z,53.86
2018-12-27T20:39:36.373Z,53.54
2018-12-27T20:42:10.310Z,53.23
2018-12-27T20:44:44.361Z,53.14
2018-12-27T20:50:00.721Z,53.33
2018-12-27T20:52:34.736Z,53.44
2018-12-27T20:55:08.845Z,53.40
2018-12-27T20:57:42.671Z,53.19
2018-12-27T21:00:16.410Z,53.17
2018-12-27T21:02:50.914Z,53.10
2018-12-27T21:05:24.957Z,52.97
2018-12-27T21:10:40.658Z,52.98
2018-12-27T21:13:14.188Z,52.65
2018-12-27T21:15:48.009Z,52.69
2018-12-27T21:21:01.717Z,53.07
2018-12-27T21:23:36.229Z,53.14
2018-12-27T21:28:51.465Z,53.18
2018-12-27T21:31:25.198Z,53.11
2018-12-27T21:36:38.520Z,53.22
2018-12-27T21:39:12.221Z,53.42
2018-12-27T21:41:46.100Z,53.36
2018-12-27T21:47:06.072Z,53.34
2018-12-27T21:49:40.227Z,53.37
2018-12-27T21:52:14.077Z,53.46
2018-12-27T21:57:33.740Z,53.46
2018-12-27T22:00:08.652Z,53.70
2018-12-27T22:02:43.187Z,53.89
2018-12-27T22:07:58.406Z,53.78
2018-12-27T22:10:32.146Z,53.70
2018-12-27T22:13:06.258Z,53.67
2018-12-27T22:18:20.412Z,53.89
2018-12-27T22:20:54.114Z,54.16
2018-12-27T22:23:27.959Z,54.13
2018-12-27T22:28:50.464Z,54.36
2018-12-27T22:31:24.169Z,54.31
2018-12-27T22:36:39.477Z,54.21
2018-12-27T22:39:13.206Z,54.24
2018-12-27T22:41:47.104Z,54.36
2018-12-27T22:47:02.639Z,54.48
2018-12-27T22:49:36.418Z,54.39
2018-12-27T22:52:10.276Z,54.35
2018-12-27T22:57:23.605Z,54.31
2018-12-27T22:59:59.405Z,54.42
2018-12-27T23:02:33.249Z,54.60
2018-12-27T23:05:07.846Z,54.54
2018-12-27T23:10:23.866Z,54.70
2018-12-27T23:12:57.633Z,54.71
2018-12-27T23:18:11.157Z,54.51
2018-12-27T23:20:44.888Z,54.67
2018-12-27T23:23:18.741Z,55.00
2018-12-27T23:28:32.065Z,54.85
2018-12-27T23:31:05.774Z,54.61
2018-12-27T23:33:39.603Z,54.50
2018-12-27T23:36:14.122Z,54.25
2018-12-27T23:38:50.462Z,54.30
2018-12-27T23:41:22.203Z,54.14
2018-12-27T23:43:56.000Z,54.07
2018-12-27T23:46:29.841Z,54.04
2018-12-27T23:49:03.619Z,54.23
2018-12-27T23:51:37.400Z,54.30
2018-12-27T23:54:11.458Z,54.14
2018-12-27T23:56:45.214Z,54.17
2018-12-27T23:59:19.020Z,54.18
